createdAt,value
2018-09-15T00:02:00.345Z,16.50
2018-09-15T00:04:27.031Z,16.50
2018-09-15T00:06:53.983Z,16.50
2018-09-15T00:09:20.613Z,16.40
2018-09-15T00:11:48.352Z,16.40
2018-09-15T00:14:15.388Z,16.40
2018-09-15T00:16:42.219Z,16.40
2018-09-15T00:19:08.925Z,16.40
2018-09-15T00:21:35.619Z,16.40
2018-09-15T00:24:02.329Z,16.40
2018-09-15T00:26:29.124Z,16.40
2018-09-15T00:28:55.812Z,16.30
2018-09-15T00:31:22.570Z,16.30
2018-09-15T00:33:49.221Z,16.30
2018-09-15T00:36:15.994Z,16.30
2018-09-15T00:38:42.875Z,16.30
2018-09-15T00:41:09.567Z,16.30
2018-09-15T00:43:36.368Z,16.30
2018-09-15T00:46:03.021Z,16.30
2018-09-15T00:48:29.705Z,16.30
2018-09-15T00:50:57.019Z,16.30
2018-09-15T00:53:23.693Z,16.30
2018-09-15T00:55:50.352Z,16.20
2018-09-15T00:58:17.710Z,16.20
2018-09-15T01:00:44.440Z,16.20
2018-09-15T01:03:11.138Z,16.20
2018-09-15T01:05:37.830Z,16.20
2018-09-15T01:08:04.466Z,16.20
2018-09-15T01:10:31.118Z,16.20
2018-09-15T01:12:57.783Z,16.20
2018-09-15T01:15:24.587Z,16.20
2018-09-15T01:17:51.350Z,16.20
2018-09-15T01:20:17.990Z,16.10
2018-09-15T01:22:44.672Z,16.10
2018-09-15T01:25:11.994Z,16.10
2018-09-15T01:27:39.408Z,16.10
2018-09-15T01:30:06.160Z,16.10
2018-09-15T01:32:32.820Z,16.10
2018-09-15T01:34:59.514Z,16.10
2018-09-15T01:37:26.166Z,16.10
2018-09-15T01:39:53.004Z,16.10
2018-09-15T01:42:19.723Z,16.10
2018-09-15T01:44:46.540Z,16.00
2018-09-15T01:47:13.231Z,16.00
2018-09-15T01:49:40.070Z,16.00
2018-09-15T01:52:06.884Z,16.00
2018-09-15T01:54:34.368Z,16.00
2018-09-15T01:57:01.038Z,16.00
2018-09-15T01:59:27.794Z,16.00
2018-09-15T02:01:54.532Z,15.90
2018-09-15T02:04:21.248Z,16.00
2018-09-15T02:06:48.063Z,16.00
2018-09-15T02:09:14.868Z,15.90
2018-09-15T02:11:41.876Z,15.90
2018-09-15T02:14:08.705Z,15.90
2018-09-15T02:16:36.361Z,15.70
2018-09-15T02:19:03.055Z,15.90
2018-09-15T02:21:29.721Z,15.90
2018-09-15T02:23:56.410Z,15.90
2018-09-15T02:26:23.144Z,15.90
2018-09-15T02:28:50.062Z,15.90
2018-09-15T02:31:16.857Z,15.90
2018-09-15T02:33:44.353Z,15.90
2018-09-15T02:36:11.056Z,15.90
2018-09-15T02:38:37.789Z,15.90
2018-09-15T02:41:04.527Z,15.90
2018-09-15T02:43:31.452Z,15.80
2018-09-15T02:45:58.302Z,15.90
2018-09-15T02:48:24.989Z,15.80
2018-09-15T02:50:51.874Z,15.90
2018-09-15T02:53:18.586Z,15.80
2018-09-15T02:55:45.453Z,15.80
2018-09-15T02:58:12.150Z,15.80
2018-09-15T03:00:38.854Z,15.80
2018-09-15T03:03:05.492Z,15.80
2018-09-15T03:05:32.336Z,15.80
2018-09-15T03:07:59.079Z,15.80
2018-09-15T03:10:26.155Z,15.80
2018-09-15T03:12:52.925Z,15.80
2018-09-15T03:15:19.619Z,15.80
2018-09-15T03:17:46.325Z,15.80
2018-09-15T03:20:13.079Z,15.70
2018-09-15T03:22:40.477Z,15.80
2018-09-15T03:25:07.169Z,15.70
2018-09-15T03:27:33.826Z,15.70
2018-09-15T03:30:00.613Z,15.70
2018-09-15T03:32:28.451Z,15.70
2018-09-15T03:34:56.131Z,15.70
2018-09-15T03:37:22.803Z,15.70
2018-09-15T03:39:49.477Z,15.40
2018-09-15T03:42:16.313Z,15.70
2018-09-15T03:44:42.995Z,15.70
2018-09-15T03:47:09.669Z,15.70
2018-09-15T03:49:36.330Z,15.70
2018-09-15T03:52:03.544Z,15.60
2018-09-15T03:54:30.347Z,15.60
2018-09-15T03:56:57.159Z,15.60
2018-09-15T03:59:23.829Z,15.60
2018-09-15T04:01:50.501Z,15.60
2018-09-15T04:04:17.321Z,15.60
2018-09-15T04:06:44.786Z,15.60
2018-09-15T04:09:11.778Z,15.60
2018-09-15T04:11:38.836Z,15.50
2018-09-15T04:14:05.566Z,15.50
2018-09-15T04:16:32.350Z,15.60
2018-09-15T04:18:59.873Z,15.50
2018-09-15T04:21:26.744Z,15.50
2018-09-15T04:23:53.422Z,15.50
2018-09-15T04:26:20.092Z,15.50
2018-09-15T04:28:47.358Z,15.50
2018-09-15T04:31:14.346Z,15.50
2018-09-15T04:33:41.292Z,15.50
2018-09-15T04:36:08.056Z,15.50
2018-09-15T04:38:34.721Z,15.40
2018-09-15T04:41:01.929Z,15.40
2018-09-15T04:43:29.303Z,15.40
2018-09-15T04:45:55.989Z,15.40
2018-09-15T04:48:22.640Z,15.40
2018-09-15T04:50:49.453Z,15.40
2018-09-15T04:53:16.361Z,15.40
2018-09-15T04:55:43.179Z,15.30
2018-09-15T04:58:10.021Z,15.30
2018-09-15T05:00:36.815Z,15.30
2018-09-15T05:03:03.507Z,15.30
2018-09-15T05:05:30.540Z,15.30
2018-09-15T05:07:57.984Z,15.30
2018-09-15T05:10:24.966Z,15.30
2018-09-15T05:12:51.662Z,15.30
2018-09-15T05:15:18.497Z,15.30
2018-09-15T05:17:45.313Z,15.20
2018-09-15T05:20:13.781Z,15.20
2018-09-15T05:22:41.169Z,15.20
2018-09-15T05:25:07.989Z,15.20
2018-09-15T05:27:34.950Z,15.20
2018-09-15T05:30:01.793Z,15.20
2018-09-15T05:32:28.720Z,15.10
2018-09-15T05:34:55.442Z,15.10
2018-09-15T05:37:22.143Z,15.10
2018-09-15T05:39:49.614Z,15.10
2018-09-15T05:42:16.473Z,15.10
2018-09-15T05:44:43.271Z,15.10
2018-09-15T05:47:09.985Z,15.10
2018-09-15T05:49:37.075Z,15.10
2018-09-15T05:52:04.369Z,15.10
2018-09-15T05:54:31.182Z,15.00
2018-09-15T05:56:57.907Z,15.00
2018-09-15T05:59:25.224Z,15.00
2018-09-15T06:01:52.096Z,15.00
2018-09-15T06:04:19.339Z,15.00
2018-09-15T06:06:46.931Z,15.00
2018-09-15T06:09:13.725Z,15.00
2018-09-15T06:11:41.120Z,15.00
2018-09-15T06:14:07.794Z,15.00
2018-09-15T06:16:35.234Z,15.00
2018-09-15T06:19:02.724Z,15.00
2018-09-15T06:21:29.613Z,15.00
2018-09-15T06:23:56.354Z,15.00
2018-09-15T06:26:23.291Z,15.00
2018-09-15T06:28:50.118Z,15.00
2018-09-15T06:31:17.045Z,15.00
2018-09-15T06:33:43.910Z,15.00
2018-09-15T06:36:10.797Z,15.00
2018-09-15T06:38:37.658Z,15.00
2018-09-15T06:41:04.650Z,15.00
2018-09-15T06:43:32.040Z,15.00
2018-09-15T06:45:58.809Z,15.00
2018-09-15T06:48:25.766Z,15.00
2018-09-15T06:50:52.532Z,15.00
2018-09-15T06:53:19.180Z,15.00
2018-09-15T06:55:46.039Z,15.00
2018-09-15T06:58:12.895Z,15.00
2018-09-15T07:00:40.293Z,15.00
2018-09-15T07:03:07.082Z,15.00
2018-09-15T07:05:33.877Z,15.00
2018-09-15T07:08:00.891Z,15.00
2018-09-15T07:10:28.881Z,15.00
2018-09-15T07:12:56.269Z,15.00
2018-09-15T07:15:22.959Z,15.00
2018-09-15T07:17:49.784Z,15.10
2018-09-15T07:20:16.767Z,15.10
2018-09-15T07:22:43.595Z,15.10
2018-09-15T07:25:10.383Z,15.10
2018-09-15T07:27:37.105Z,15.10
2018-09-15T07:30:04.084Z,15.10
2018-09-15T07:32:31.889Z,15.20
2018-09-15T07:34:58.903Z,15.20
2018-09-15T07:37:25.941Z,15.20
2018-09-15T07:39:52.718Z,15.20
2018-09-15T07:42:19.383Z,15.20
2018-09-15T07:44:46.205Z,15.20
2018-09-15T07:47:13.205Z,15.20
2018-09-15T07:49:40.097Z,15.30
2018-09-15T07:52:06.839Z,15.30
2018-09-15T07:54:33.567Z,15.30
2018-09-15T07:57:01.009Z,15.30
2018-09-15T07:59:27.900Z,15.30
2018-09-15T08:01:54.846Z,15.40
2018-09-15T08:04:21.559Z,15.40
2018-09-15T08:06:48.277Z,15.40
2018-09-15T08:09:15.033Z,15.40
2018-09-15T08:11:41.795Z,15.50
2018-09-15T08:14:09.321Z,15.50
2018-09-15T08:16:36.205Z,15.50
2018-09-15T08:19:03.083Z,15.50
2018-09-15T08:21:30.585Z,15.60
2018-09-15T08:23:57.303Z,15.60
2018-09-15T08:26:24.266Z,15.60
2018-09-15T08:28:51.158Z,15.70
2018-09-15T08:31:17.999Z,15.70
2018-09-15T08:33:44.686Z,15.70
2018-09-15T08:36:11.372Z,15.80
2018-09-15T08:38:38.121Z,15.80
2018-09-15T08:41:04.880Z,15.90
2018-09-15T08:43:31.672Z,15.90
2018-09-15T08:45:58.492Z,15.90
2018-09-15T08:48:25.513Z,16.00
2018-09-15T08:50:52.304Z,16.00
2018-09-15T08:53:19.154Z,16.10
2018-09-15T08:55:46.027Z,16.10
2018-09-15T08:58:13.010Z,16.10
2018-09-15T09:00:39.718Z,16.20
2018-09-15T09:03:06.668Z,16.20
2018-09-15T09:05:34.031Z,16.30
2018-09-15T09:08:00.928Z,16.30
2018-09-15T09:10:27.672Z,16.30
2018-09-15T09:12:54.534Z,16.40
2018-09-15T09:15:22.110Z,16.40
2018-09-15T09:17:49.289Z,16.50
2018-09-15T09:20:16.194Z,16.50
2018-09-15T09:22:43.773Z,16.50
2018-09-15T09:25:10.602Z,16.60
2018-09-15T09:27:37.444Z,16.60
2018-09-15T09:30:04.222Z,16.70
2018-09-15T09:32:31.268Z,16.70
2018-09-15T09:34:58.651Z,16.70
2018-09-15T09:37:25.434Z,16.80
2018-09-15T09:39:52.277Z,16.80
2018-09-15T09:42:19.255Z,16.80
2018-09-15T09:44:46.354Z,16.90
2018-09-15T09:47:13.335Z,16.90
2018-09-15T09:49:40.169Z,17.00
2018-09-15T09:52:07.591Z,17.00
2018-09-15T09:54:34.387Z,17.10
2018-09-15T09:57:01.167Z,17.10
2018-09-15T09:59:27.858Z,17.20
2018-09-15T10:02:00.131Z,17.20
2018-09-15T10:04:27.047Z,17.30
2018-09-15T10:06:53.955Z,17.30
2018-09-15T10:09:20.645Z,17.40
2018-09-15T10:11:47.459Z,17.40
2018-09-15T10:14:14.122Z,17.40
2018-09-15T10:16:40.846Z,17.50
2018-09-15T10:19:08.385Z,17.50
2018-09-15T10:21:35.245Z,17.60
2018-09-15T10:24:02.247Z,17.60
2018-09-15T10:26:29.286Z,17.70
2018-09-15T10:28:56.215Z,17.70
2018-09-15T10:31:23.211Z,17.80
2018-09-15T10:33:50.029Z,17.80
2018-09-15T10:36:18.096Z,17.60
2018-09-15T10:38:45.001Z,17.90
2018-09-15T10:41:11.896Z,18.00
2018-09-15T10:43:38.790Z,18.00
2018-09-15T10:46:05.587Z,18.00
2018-09-15T10:48:32.389Z,18.10
2018-09-15T10:50:59.134Z,18.10
2018-09-15T10:53:25.905Z,18.20
2018-09-15T10:55:53.654Z,18.20
2018-09-15T10:58:20.638Z,18.20
2018-09-15T11:00:47.389Z,18.30
2018-09-15T11:03:14.225Z,18.30
2018-09-15T11:05:41.096Z,18.30
2018-09-15T11:08:07.994Z,18.40
2018-09-15T11:10:34.884Z,18.40
2018-09-15T11:13:02.838Z,18.40
2018-09-15T11:15:29.504Z,18.50
2018-09-15T11:17:56.240Z,18.50
2018-09-15T11:20:24.267Z,18.60
2018-09-15T11:22:51.175Z,18.60
2018-09-15T11:25:17.841Z,18.60
2018-09-15T11:27:44.631Z,18.60
2018-09-15T11:30:11.642Z,18.70
2018-09-15T11:32:38.457Z,18.70
2018-09-15T11:35:05.265Z,18.70
2018-09-15T11:37:32.189Z,18.80
2018-09-15T11:39:58.937Z,18.80
2018-09-15T11:42:25.734Z,18.80
2018-09-15T11:44:52.518Z,18.90
2018-09-15T11:47:19.758Z,18.90
2018-09-15T11:49:46.454Z,18.90
2018-09-15T11:52:13.196Z,19.00
2018-09-15T11:54:40.093Z,19.00
2018-09-15T11:57:06.785Z,19.00
2018-09-15T11:59:33.636Z,19.00
2018-09-15T12:02:00.634Z,19.10
2018-09-15T12:04:27.329Z,19.20
2018-09-15T12:06:54.057Z,19.20
2018-09-15T12:09:20.959Z,19.20
2018-09-15T12:11:47.917Z,19.30
2018-09-15T12:14:14.741Z,19.30
2018-09-15T12:16:41.423Z,19.40
2018-09-15T12:19:08.102Z,19.40
2018-09-15T12:21:34.957Z,19.40
2018-09-15T12:24:01.781Z,19.50
2018-09-15T12:26:28.584Z,19.50
2018-09-15T12:28:56.202Z,19.50
2018-09-15T12:31:23.272Z,19.50
2018-09-15T12:33:50.847Z,19.60
2018-09-15T12:36:17.687Z,19.60
2018-09-15T12:38:44.618Z,19.60
2018-09-15T12:41:11.466Z,19.70
2018-09-15T12:43:38.175Z,19.70
2018-09-15T12:46:05.497Z,19.70
2018-09-15T12:48:32.465Z,19.80
2018-09-15T12:50:59.313Z,19.80
2018-09-15T12:53:26.033Z,19.80
2018-09-15T12:55:52.889Z,19.90
2018-09-15T12:58:20.372Z,19.90
2018-09-15T13:00:47.555Z,19.90
2018-09-15T13:03:14.609Z,20.00
2018-09-15T13:05:41.325Z,20.00
2018-09-15T13:08:08.213Z,19.80
2018-09-15T13:10:34.964Z,20.10
2018-09-15T13:13:01.763Z,20.10
2018-09-15T13:15:28.612Z,19.90
2018-09-15T13:17:55.926Z,20.20
2018-09-15T13:20:22.696Z,19.80
2018-09-15T13:22:49.567Z,20.30
2018-09-15T13:25:16.847Z,19.90
2018-09-15T13:27:43.829Z,20.30
2018-09-15T13:30:10.814Z,20.40
2018-09-15T13:32:37.537Z,20.40
2018-09-15T13:35:04.475Z,20.40
2018-09-15T13:37:31.291Z,20.50
2018-09-15T13:39:59.373Z,20.50
2018-09-15T13:42:26.139Z,20.50
2018-09-15T13:44:52.978Z,20.60
2018-09-15T13:47:20.593Z,20.40
2018-09-15T13:49:47.356Z,20.60
2018-09-15T13:52:14.153Z,20.60
2018-09-15T13:54:41.487Z,20.70
2018-09-15T13:57:08.195Z,20.70
2018-09-15T13:59:35.841Z,20.70
2018-09-15T14:02:03.295Z,20.80
2018-09-15T14:04:30.071Z,20.90
2018-09-15T14:06:56.872Z,20.80
2018-09-15T14:09:24.162Z,20.80
2018-09-15T14:11:50.970Z,20.80
2018-09-15T14:14:18.700Z,21.10
2018-09-15T14:16:45.612Z,20.80
2018-09-15T14:19:12.416Z,20.90
2018-09-15T14:21:39.642Z,20.90
2018-09-15T14:24:06.365Z,20.90
2018-09-15T14:26:33.286Z,20.90
2018-09-15T14:29:00.206Z,20.90
2018-09-15T14:31:27.928Z,21.00
2018-09-15T14:33:54.705Z,21.00
2018-09-15T14:36:21.808Z,21.00
2018-09-15T14:38:49.575Z,21.00
2018-09-15T14:41:16.351Z,21.00
2018-09-15T14:43:44.517Z,21.00
2018-09-15T14:46:11.293Z,21.00
2018-09-15T14:48:37.988Z,21.00
2018-09-15T14:51:04.748Z,21.00
2018-09-15T14:53:31.643Z,21.10
2018-09-15T14:55:58.454Z,21.10
2018-09-15T14:58:25.255Z,21.10
2018-09-15T15:00:52.074Z,21.10
2018-09-15T15:03:18.911Z,21.10
2018-09-15T15:05:46.335Z,21.10
2018-09-15T15:08:13.265Z,21.10
2018-09-15T15:10:40.166Z,21.10
2018-09-15T15:13:07.092Z,21.10
2018-09-15T15:15:34.038Z,21.10
2018-09-15T15:18:00.918Z,21.10
2018-09-15T15:20:27.638Z,21.10
2018-09-15T15:22:54.933Z,21.10
2018-09-15T15:25:22.033Z,21.10
2018-09-15T15:27:48.972Z,21.00
2018-09-15T15:30:16.028Z,21.10
2018-09-15T15:32:44.224Z,21.10
2018-09-15T15:35:11.118Z,21.20
2018-09-15T15:37:37.833Z,21.20
2018-09-15T15:40:04.562Z,21.10
2018-09-15T15:42:31.293Z,21.20
2018-09-15T15:44:57.965Z,21.20
2018-09-15T15:47:24.641Z,21.20
2018-09-15T15:49:51.345Z,21.20
2018-09-15T15:52:18.241Z,21.20
2018-09-15T15:54:45.133Z,21.20
2018-09-15T15:57:11.984Z,21.20
2018-09-15T15:59:38.717Z,21.20
2018-09-15T16:02:05.415Z,21.20
2018-09-15T16:04:32.427Z,21.20
2018-09-15T16:06:59.268Z,21.20
2018-09-15T16:09:26.001Z,21.20
2018-09-15T16:11:52.923Z,21.20
2018-09-15T16:14:20.408Z,21.20
2018-09-15T16:16:47.151Z,21.20
2018-09-15T16:19:13.985Z,21.10
2018-09-15T16:21:41.537Z,21.20
2018-09-15T16:24:08.344Z,21.10
2018-09-15T16:26:35.276Z,21.10
2018-09-15T16:29:02.761Z,21.10
2018-09-15T16:31:29.569Z,21.10
2018-09-15T16:33:56.443Z,21.10
2018-09-15T16:36:23.171Z,21.10
2018-09-15T16:38:49.888Z,21.00
2018-09-15T16:41:16.672Z,21.00
2018-09-15T16:43:44.390Z,21.00
2018-09-15T16:46:11.410Z,21.00
2018-09-15T16:48:38.188Z,21.00
2018-09-15T16:51:05.063Z,20.90
2018-09-15T16:53:32.004Z,20.90
2018-09-15T16:55:59.982Z,20.90
2018-09-15T16:58:26.702Z,20.60
2018-09-15T17:00:54.899Z,20.80
2018-09-15T17:03:21.742Z,20.80
2018-09-15T17:05:50.532Z,20.80
2018-09-15T17:08:18.360Z,20.80
2018-09-15T17:10:45.372Z,20.80
2018-09-15T17:13:12.251Z,20.80
2018-09-15T17:15:39.027Z,20.70
2018-09-15T17:18:05.719Z,20.70
2018-09-15T17:20:32.680Z,20.70
2018-09-15T17:22:59.460Z,20.70
2018-09-15T17:25:26.325Z,20.60
2018-09-15T17:27:53.837Z,20.60
2018-09-15T17:30:20.827Z,20.60
2018-09-15T17:32:47.795Z,20.60
2018-09-15T17:35:15.329Z,20.50
2018-09-15T17:37:42.381Z,20.50
2018-09-15T17:40:09.288Z,20.50
2018-09-15T17:42:36.005Z,20.50
2018-09-15T17:45:02.823Z,20.40
2018-09-15T17:47:30.390Z,20.40
2018-09-15T17:49:57.129Z,20.40
2018-09-15T17:52:24.025Z,20.40
2018-09-15T17:54:51.062Z,20.40
2018-09-15T17:57:17.992Z,20.30
2018-09-15T17:59:44.744Z,20.30
2018-09-15T18:02:12.364Z,20.30
2018-09-15T18:04:39.217Z,20.30
2018-09-15T18:07:05.957Z,20.20
2018-09-15T18:09:32.838Z,20.20
2018-09-15T18:11:59.698Z,20.20
2018-09-15T18:14:26.463Z,20.10
2018-09-15T18:16:53.499Z,20.10
2018-09-15T18:19:20.370Z,20.10
2018-09-15T18:21:47.222Z,20.10
2018-09-15T18:24:13.962Z,20.00
2018-09-15T18:26:40.854Z,20.00
2018-09-15T18:29:07.609Z,20.00
2018-09-15T18:31:34.299Z,19.90
2018-09-15T18:34:01.240Z,19.90
2018-09-15T18:36:28.074Z,19.90
2018-09-15T18:38:54.868Z,19.90
2018-09-15T18:41:21.543Z,19.80
2018-09-15T18:43:49.019Z,19.80
2018-09-15T18:46:21.163Z,19.60
2018-09-15T18:48:47.854Z,19.70
2018-09-15T18:51:14.546Z,19.80
2018-09-15T18:53:41.284Z,19.70
2018-09-15T18:56:08.316Z,19.70
2018-09-15T18:58:34.967Z,19.60
2018-09-15T19:01:01.739Z,19.60
2018-09-15T19:03:28.701Z,19.60
2018-09-15T19:05:55.474Z,19.50
2018-09-15T19:08:22.121Z,19.50
2018-09-15T19:10:48.819Z,19.50
2018-09-15T19:13:15.673Z,19.40
2018-09-15T19:15:42.560Z,19.40
2018-09-15T19:18:09.558Z,19.40
2018-09-15T19:20:36.352Z,19.30
2018-09-15T19:23:03.346Z,19.30
2018-09-15T19:25:30.190Z,19.30
2018-09-15T19:27:56.989Z,19.20
2018-09-15T19:30:23.807Z,19.20
2018-09-15T19:32:50.620Z,19.20
2018-09-15T19:35:17.462Z,19.10
2018-09-15T19:37:44.359Z,19.10
2018-09-15T19:40:11.175Z,19.10
2018-09-15T19:42:37.880Z,19.00
2018-09-15T19:45:04.762Z,19.00
2018-09-15T19:47:31.471Z,19.00
2018-09-15T19:49:58.992Z,18.90
2018-09-15T19:52:26.085Z,18.90
2018-09-15T19:54:52.873Z,18.80
2018-09-15T19:57:19.639Z,18.80
2018-09-15T19:59:46.490Z,18.80
2018-09-15T20:02:13.247Z,18.80
2018-09-15T20:04:40.168Z,18.70
2018-09-15T20:07:06.850Z,18.70
2018-09-15T20:09:33.556Z,18.60
2018-09-15T20:12:00.216Z,18.60
2018-09-15T20:14:27.006Z,18.60
2018-09-15T20:16:53.958Z,18.50
2018-09-15T20:19:20.688Z,18.50
2018-09-15T20:21:47.378Z,18.40
2018-09-15T20:24:14.116Z,18.40
2018-09-15T20:26:40.861Z,18.40
2018-09-15T20:29:07.584Z,18.30
2018-09-15T20:31:34.378Z,18.30
2018-09-15T20:34:01.753Z,18.30
2018-09-15T20:36:28.428Z,18.20
2018-09-15T20:38:55.790Z,18.20
2018-09-15T20:41:23.579Z,18.10
2018-09-15T20:43:50.280Z,18.10
2018-09-15T20:46:16.979Z,18.10
2018-09-15T20:48:43.772Z,18.00
2018-09-15T20:51:10.577Z,18.00
2018-09-15T20:53:37.623Z,18.00
2018-09-15T20:56:04.983Z,17.90
2018-09-15T20:58:31.631Z,17.90
2018-09-15T21:00:58.292Z,17.90
2018-09-15T21:03:25.024Z,17.90
2018-09-15T21:05:51.731Z,17.80
2018-09-15T21:08:18.598Z,17.80
2018-09-15T21:10:45.281Z,17.70
2018-09-15T21:13:12.272Z,17.70
2018-09-15T21:15:38.997Z,17.70
2018-09-15T21:18:05.816Z,17.70
2018-09-15T21:20:32.596Z,17.60
2018-09-15T21:22:59.285Z,17.60
2018-09-15T21:25:26.131Z,17.60
2018-09-15T21:27:53.039Z,17.50
2018-09-15T21:30:19.732Z,17.50
2018-09-15T21:32:46.816Z,17.50
2018-09-15T21:35:13.716Z,17.40
2018-09-15T21:37:40.590Z,17.40
2018-09-15T21:40:07.460Z,17.40
2018-09-15T21:42:34.235Z,17.40
2018-09-15T21:45:01.184Z,17.30
2018-09-15T21:47:27.936Z,17.30
2018-09-15T21:49:54.628Z,17.30
2018-09-15T21:52:22.084Z,17.30
2018-09-15T21:54:49.006Z,17.20
2018-09-15T21:57:15.746Z,17.20
2018-09-15T21:59:42.470Z,17.20
2018-09-15T22:02:09.170Z,17.10
2018-09-15T22:04:35.868Z,17.10
2018-09-15T22:07:02.745Z,17.10
2018-09-15T22:09:29.639Z,17.10
2018-09-15T22:11:57.143Z,17.00
2018-09-15T22:14:23.838Z,17.00
2018-09-15T22:16:50.598Z,17.00
2018-09-15T22:19:17.294Z,16.90
2018-09-15T22:21:44.036Z,16.90
2018-09-15T22:24:10.804Z,16.90
2018-09-15T22:26:37.698Z,16.90
2018-09-15T22:29:04.644Z,16.80
2018-09-15T22:31:31.297Z,16.80
2018-09-15T22:33:58.823Z,16.80
2018-09-15T22:36:25.521Z,16.80
2018-09-15T22:38:52.185Z,16.70
2018-09-15T22:41:18.848Z,16.70
2018-09-15T22:43:45.691Z,16.30
2018-09-15T22:46:12.417Z,16.70
2018-09-15T22:48:39.458Z,16.40
2018-09-15T22:51:06.295Z,16.60
2018-09-15T22:53:33.584Z,16.60
2018-09-15T22:56:00.879Z,16.60
2018-09-15T22:58:28.505Z,16.50
2018-09-15T23:00:55.235Z,16.50
2018-09-15T23:03:21.935Z,16.50
2018-09-15T23:05:48.605Z,16.50
2018-09-15T23:08:15.570Z,16.40
2018-09-15T23:10:42.289Z,16.40
2018-09-15T23:13:09.115Z,16.40
2018-09-15T23:15:35.800Z,16.30
2018-09-15T23:18:02.535Z,16.30
2018-09-15T23:20:29.221Z,16.30
2018-09-15T23:22:55.915Z,16.30
2018-09-15T23:25:22.781Z,16.30
2018-09-15T23:27:49.526Z,16.20
2018-09-15T23:30:16.428Z,16.20
2018-09-15T23:32:43.242Z,16.20
2018-09-15T23:35:10.682Z,16.20
2018-09-15T23:37:38.019Z,16.10
2018-09-15T23:40:04.714Z,16.10
2018-09-15T23:42:31.383Z,16.10
2018-09-15T23:44:58.645Z,16.10
2018-09-15T23:47:25.405Z,16.00
2018-09-15T23:49:52.750Z,16.00
2018-09-15T23:52:19.548Z,16.00
2018-09-15T23:54:46.206Z,16.00
2018-09-15T23:57:12.852Z,15.90
2018-09-15T23:59:40.227Z,15.90
